createdAt,value
2022-10-05T00:00:54.907Z,11.23
2022-10-05T00:03:22.718Z,11.95
2022-10-05T00:05:49.903Z,14.23
2022-10-05T00:08:25.476Z,12.43
2022-10-05T00:10:52.751Z,13.93
2022-10-05T00:13:27.107Z,15.00
2022-10-05T00:16:09.343Z,11.68
2022-10-05T00:18:36.199Z,13.52
2022-10-05T00:21:16.902Z,10.85
2022-10-05T00:23:43.634Z,13.57
2022-10-05T00:26:26.948Z,15.23
2022-10-05T00:28:54.894Z,13.75
2022-10-05T00:31:26.395Z,11.35
2022-10-05T00:33:54.993Z,13.18
2022-10-05T00:36:21.937Z,15.32
2022-10-05T00:38:48.680Z,12.90
2022-10-05T00:41:40.143Z,11.73
2022-10-05T00:44:12.645Z,12.63
2022-10-05T00:46:54.721Z,11.48
2022-10-05T00:49:55.278Z,16.00
2022-10-05T00:52:45.675Z,14.48
2022-10-05T00:55:36.734Z,14.20
2022-10-05T01:01:31.714Z,14.73
2022-10-05T01:04:24.173Z,18.42
2022-10-05T01:07:02.774Z,17.80
2022-10-05T01:09:43.229Z,12.15
2022-10-05T01:12:24.225Z,16.08
2022-10-05T01:15:00.105Z,12.35
2022-10-05T01:18:02.956Z,16.25
2022-10-05T01:20:55.144Z,14.73
2022-10-05T01:23:59.417Z,17.15
2022-10-05T01:26:26.031Z,18.77
2022-10-05T01:29:02.849Z,12.50
2022-10-05T01:31:40.374Z,14.77
2022-10-05T01:34:17.974Z,16.83
2022-10-05T01:37:22.175Z,13.68
2022-10-05T01:39:58.195Z,14.02
2022-10-05T01:43:10.485Z,15.43
2022-10-05T01:46:12.743Z,15.88
2022-10-05T01:49:01.653Z,13.85
2022-10-05T01:51:51.585Z,13.15
2022-10-05T01:55:01.949Z,13.15
2022-10-05T01:57:55.470Z,13.38
2022-10-05T02:00:23.792Z,13.18
2022-10-05T02:03:10.663Z,15.88
2022-10-05T02:05:58.226Z,15.30
2022-10-05T02:09:03.282Z,14.55
2022-10-05T02:11:30.351Z,14.95
2022-10-05T02:14:10.845Z,15.63
2022-10-05T02:16:44.720Z,15.35
2022-10-05T02:19:25.989Z,13.65
2022-10-05T02:22:05.251Z,13.50
2022-10-05T02:24:45.878Z,12.68
2022-10-05T02:27:21.758Z,13.77
2022-10-05T02:29:55.960Z,14.43
2022-10-05T02:32:29.559Z,12.63
2022-10-05T02:35:04.285Z,16.13
2022-10-05T02:37:57.385Z,14.00
2022-10-05T02:40:45.888Z,14.57
2022-10-05T02:43:34.625Z,12.85
2022-10-05T02:46:37.882Z,16.00
2022-10-05T02:52:06.013Z,17.08
2022-10-05T02:55:10.308Z,13.73
2022-10-05T02:58:09.061Z,13.20
2022-10-05T03:00:50.325Z,11.20
2022-10-05T03:03:54.794Z,12.55
2022-10-05T03:06:35.527Z,11.30
2022-10-05T03:09:09.394Z,17.25
2022-10-05T03:12:28.270Z,13.73
2022-10-05T03:15:23.433Z,16.67
2022-10-05T03:18:06.700Z,13.40
2022-10-05T03:20:55.005Z,13.60
2022-10-05T03:23:54.433Z,16.33
2022-10-05T03:26:46.834Z,16.67
2022-10-05T03:29:31.576Z,15.30
2022-10-05T03:32:21.213Z,17.15
2022-10-05T03:35:07.192Z,14.80
2022-10-05T03:37:59.190Z,15.18
2022-10-05T03:40:52.684Z,14.25
2022-10-05T03:43:48.355Z,22.13
2022-10-05T03:46:58.925Z,16.80
2022-10-05T03:49:43.468Z,17.15
2022-10-05T03:52:39.675Z,15.35
2022-10-05T03:55:31.151Z,14.65
2022-10-05T03:58:31.694Z,12.45
2022-10-05T04:01:12.137Z,12.07
2022-10-05T04:03:47.531Z,14.23
2022-10-05T04:06:47.216Z,16.05
2022-10-05T04:09:22.839Z,13.02
2022-10-05T04:12:24.290Z,15.50
2022-10-05T04:15:01.561Z,14.68
2022-10-05T04:17:40.534Z,12.65
2022-10-05T04:20:19.050Z,14.15
2022-10-05T04:23:09.736Z,11.05
2022-10-05T04:25:46.196Z,16.13
2022-10-05T04:28:31.943Z,13.90
2022-10-05T04:31:03.900Z,11.40
2022-10-05T04:33:32.312Z,17.00
2022-10-05T04:36:18.377Z,11.57
2022-10-05T04:39:04.233Z,12.85
2022-10-05T04:42:09.061Z,15.95
2022-10-05T04:44:59.117Z,14.52
2022-10-05T04:48:10.554Z,17.40
2022-10-05T04:50:43.313Z,16.63
2022-10-05T04:53:29.226Z,17.08
2022-10-05T04:56:19.328Z,14.57
2022-10-05T04:59:03.534Z,14.60
2022-10-05T05:02:27.377Z,19.02
2022-10-05T05:05:17.870Z,15.85
2022-10-05T05:07:54.325Z,12.45
2022-10-05T05:11:24.657Z,13.18
2022-10-05T05:14:32.938Z,14.60
2022-10-05T05:17:41.042Z,15.95
2022-10-05T05:20:45.621Z,13.23
2022-10-05T05:23:42.399Z,13.20
2022-10-05T05:26:40.556Z,16.45
2022-10-05T05:32:04.885Z,11.25
2022-10-05T05:34:52.952Z,10.85
2022-10-05T05:37:44.103Z,11.57
2022-10-05T05:40:40.915Z,12.75
2022-10-05T05:43:30.113Z,10.48
2022-10-05T05:46:05.663Z,8.27
2022-10-05T05:48:43.914Z,13.13
2022-10-05T05:51:24.972Z,12.82
2022-10-05T05:54:10.677Z,9.77
2022-10-05T05:56:45.635Z,10.65
2022-10-05T05:59:47.334Z,12.43
2022-10-05T06:02:23.595Z,9.93
2022-10-05T06:05:23.449Z,14.05
2022-10-05T06:07:55.621Z,16.00
2022-10-05T06:10:36.076Z,13.65
2022-10-05T06:13:19.228Z,12.63
2022-10-05T06:15:55.885Z,11.30
2022-10-05T06:18:24.773Z,14.07
2022-10-05T06:21:14.645Z,11.43
2022-10-05T06:24:10.421Z,10.50
2022-10-05T06:27:20.571Z,13.57
2022-10-05T06:30:11.080Z,16.73
2022-10-05T06:33:14.077Z,11.10
2022-10-05T06:36:20.546Z,12.70
2022-10-05T06:39:21.704Z,11.95
2022-10-05T06:41:54.364Z,10.15
2022-10-05T06:45:11.242Z,8.10
2022-10-05T06:48:11.045Z,15.75
2022-10-05T06:51:24.092Z,9.77
2022-10-05T06:54:43.634Z,10.07
2022-10-05T06:58:02.873Z,7.72
2022-10-05T07:00:44.583Z,10.30
2022-10-05T07:03:52.230Z,9.75
2022-10-05T07:07:01.065Z,8.60
2022-10-05T07:10:17.503Z,8.77
2022-10-05T07:12:57.778Z,8.65
2022-10-05T07:15:39.456Z,8.93
2022-10-05T07:19:10.105Z,8.30
2022-10-05T07:22:00.269Z,12.98
2022-10-05T07:24:58.136Z,8.13
2022-10-05T07:27:47.158Z,11.10
2022-10-05T07:30:17.490Z,7.13
2022-10-05T07:33:12.834Z,7.07
2022-10-05T07:36:23.182Z,9.30
2022-10-05T07:39:06.064Z,8.43
2022-10-05T07:41:57.461Z,7.35
2022-10-05T07:44:35.884Z,7.68
2022-10-05T07:47:30.264Z,7.25
2022-10-05T07:50:36.856Z,9.18
2022-10-05T07:53:28.634Z,7.20
2022-10-05T07:56:05.567Z,8.80
2022-10-05T07:58:43.169Z,9.65
2022-10-05T08:01:25.020Z,7.35
2022-10-05T08:04:21.363Z,10.93
2022-10-05T08:07:15.598Z,7.78
2022-10-05T08:09:50.202Z,6.80
2022-10-05T08:12:42.581Z,6.68
2022-10-05T08:15:17.024Z,7.90
2022-10-05T08:18:00.716Z,10.38
2022-10-05T08:20:52.523Z,8.85
2022-10-05T08:23:38.595Z,6.50
2022-10-05T08:26:24.260Z,6.75
2022-10-05T08:29:30.682Z,6.93
2022-10-05T08:32:05.436Z,8.55
2022-10-05T08:34:45.787Z,7.35
2022-10-05T08:37:23.548Z,6.95
2022-10-05T08:40:39.351Z,9.32
2022-10-05T08:43:59.952Z,8.57
2022-10-05T08:46:52.984Z,7.05
2022-10-05T08:49:42.651Z,12.00
2022-10-05T08:52:28.913Z,9.55
2022-10-05T08:55:10.370Z,5.75
2022-10-05T08:58:12.357Z,7.47
2022-10-05T09:00:41.910Z,6.32
2022-10-05T09:03:42.490Z,7.32
2022-10-05T09:06:27.550Z,6.85
2022-10-05T09:09:19.161Z,7.57
2022-10-05T09:12:38.510Z,5.82
2022-10-05T09:15:26.185Z,5.70
2022-10-05T09:18:41.916Z,5.90
2022-10-05T09:21:43.591Z,6.85
2022-10-05T09:24:13.270Z,6.20
2022-10-05T09:26:54.980Z,6.63
2022-10-05T09:29:39.723Z,6.03
2022-10-05T09:32:37.173Z,7.18
2022-10-05T09:35:22.134Z,8.23
2022-10-05T09:38:08.352Z,6.30
2022-10-05T09:41:18.478Z,6.10
2022-10-05T09:45:07.409Z,7.30
2022-10-05T09:47:59.872Z,6.93
2022-10-05T09:50:40.817Z,5.80
2022-10-05T09:53:48.190Z,7.97
2022-10-05T09:56:36.199Z,4.68
2022-10-05T09:59:45.970Z,7.07
2022-10-05T10:03:18.110Z,5.78
2022-10-05T10:06:35.422Z,6.07
2022-10-05T10:09:27.136Z,7.07
2022-10-05T10:12:32.776Z,5.95
2022-10-05T10:15:14.625Z,8.45
2022-10-05T10:17:59.606Z,8.15
2022-10-05T10:20:42.652Z,6.03
2022-10-05T10:23:35.511Z,8.07
2022-10-05T10:26:27.365Z,6.90
2022-10-05T10:29:45.973Z,5.57
2022-10-05T10:32:49.903Z,5.40
2022-10-05T10:35:39.038Z,5.43
2022-10-05T10:38:38.318Z,7.53
2022-10-05T10:42:26.185Z,5.78
2022-10-05T10:45:21.186Z,4.45
2022-10-05T10:48:21.190Z,5.13
2022-10-05T10:50:59.489Z,7.53
2022-10-05T10:54:18.455Z,7.40
2022-10-05T10:57:16.941Z,5.25
2022-10-05T11:00:38.911Z,5.55
2022-10-05T11:03:44.545Z,5.15
2022-10-05T11:07:22.815Z,5.57
2022-10-05T11:10:04.652Z,7.13
2022-10-05T11:13:02.137Z,3.90
2022-10-05T11:19:20.324Z,5.20
2022-10-05T11:22:30.474Z,6.30
2022-10-05T11:25:24.751Z,5.55
2022-10-05T11:28:37.612Z,6.40
2022-10-05T11:31:36.734Z,6.18
2022-10-05T11:34:09.877Z,4.38
2022-10-05T11:37:15.890Z,4.10
2022-10-05T11:40:39.102Z,5.72
2022-10-05T11:43:42.371Z,3.40
2022-10-05T11:49:03.751Z,4.78
2022-10-05T11:51:44.690Z,4.35
2022-10-05T11:54:26.526Z,4.35
2022-10-05T11:57:12.807Z,5.18
2022-10-05T12:00:07.104Z,5.70
2022-10-05T12:02:54.467Z,4.47
2022-10-05T12:05:48.601Z,4.88
2022-10-05T12:08:37.660Z,5.80
2022-10-05T12:11:34.634Z,5.20
2022-10-05T12:14:33.441Z,4.70
2022-10-05T12:17:09.827Z,4.45
2022-10-05T12:19:45.913Z,3.60
2022-10-05T12:22:28.156Z,4.10
2022-10-05T12:25:25.638Z,4.15
2022-10-05T12:27:59.694Z,5.70
2022-10-05T12:31:03.228Z,4.72
2022-10-05T12:34:02.776Z,3.28
2022-10-05T12:37:02.954Z,5.50
2022-10-05T12:42:51.215Z,6.90
2022-10-05T12:45:35.992Z,4.50
2022-10-05T12:49:09.326Z,4.15
2022-10-05T12:51:48.046Z,5.25
2022-10-05T12:54:24.924Z,6.07
2022-10-05T12:57:06.686Z,7.63
2022-10-05T12:59:57.217Z,4.70
2022-10-05T13:02:51.285Z,5.82
2022-10-05T13:05:44.070Z,6.65
2022-10-05T13:08:19.851Z,3.72
2022-10-05T13:10:53.083Z,4.72
2022-10-05T13:13:53.250Z,3.60
2022-10-05T13:16:40.207Z,4.13
2022-10-05T13:19:31.318Z,3.72
2022-10-05T13:22:25.761Z,3.75
2022-10-05T13:25:04.433Z,3.00
2022-10-05T13:27:48.683Z,4.63
2022-10-05T13:30:20.090Z,3.92
2022-10-05T13:33:25.024Z,2.92
2022-10-05T13:36:09.423Z,5.90
2022-10-05T13:41:55.080Z,3.75
2022-10-05T13:44:50.640Z,2.58
2022-10-05T13:47:56.995Z,6.68
2022-10-05T13:50:34.580Z,5.43
2022-10-05T13:53:48.727Z,6.60
2022-10-05T13:56:20.434Z,3.30
2022-10-05T13:59:14.602Z,2.75
2022-10-05T14:02:00.903Z,2.72
2022-10-05T14:04:44.674Z,5.47
2022-10-05T14:07:38.053Z,4.40
2022-10-05T14:10:14.293Z,4.70
2022-10-05T14:12:45.811Z,4.05
2022-10-05T14:15:21.216Z,5.97
2022-10-05T14:17:48.917Z,6.30
2022-10-05T14:20:23.896Z,5.07
2022-10-05T14:22:58.161Z,6.03
2022-10-05T14:25:25.351Z,4.85
2022-10-05T14:27:58.752Z,4.25
2022-10-05T14:30:29.371Z,5.90
2022-10-05T14:33:05.059Z,3.30
2022-10-05T14:35:44.496Z,2.63
2022-10-05T14:38:36.221Z,5.80
2022-10-05T14:41:18.259Z,2.95
2022-10-05T14:44:12.952Z,7.00
2022-10-05T14:46:58.763Z,5.88
2022-10-05T14:49:30.154Z,6.45
2022-10-05T14:51:58.548Z,3.47
2022-10-05T14:55:00.885Z,4.22
2022-10-05T14:58:09.532Z,3.72
2022-10-05T15:01:01.803Z,3.83
2022-10-05T15:04:02.988Z,11.15
2022-10-05T15:06:54.709Z,3.65
2022-10-05T15:09:34.414Z,4.90
2022-10-05T15:12:03.765Z,3.50
2022-10-05T15:14:36.446Z,7.55
2022-10-05T15:17:16.153Z,5.93
2022-10-05T15:19:56.613Z,6.28
2022-10-05T15:22:39.488Z,3.20
2022-10-05T15:25:23.061Z,8.30
2022-10-05T15:28:47.125Z,4.32
2022-10-05T15:31:43.067Z,5.63
2022-10-05T15:34:22.407Z,2.95
2022-10-05T15:37:44.426Z,5.93
2022-10-05T15:41:03.335Z,4.07
2022-10-05T15:43:46.584Z,4.57
2022-10-05T15:46:40.349Z,3.40
2022-10-05T15:49:21.931Z,4.43
2022-10-05T15:52:23.853Z,3.72
2022-10-05T15:55:09.098Z,5.97
2022-10-05T15:58:00.270Z,3.90
2022-10-05T16:00:30.156Z,4.30
2022-10-05T16:03:37.241Z,5.32
2022-10-05T16:06:41.709Z,4.97
2022-10-05T16:09:49.775Z,6.07
2022-10-05T16:12:52.122Z,6.32
2022-10-05T16:15:33.332Z,4.38
2022-10-05T16:18:20.252Z,4.10
2022-10-05T16:21:02.373Z,3.30
2022-10-05T16:23:44.506Z,2.95
2022-10-05T16:26:32.878Z,4.72
2022-10-05T16:29:13.239Z,5.28
2022-10-05T16:31:59.201Z,3.53
2022-10-05T16:34:50.494Z,3.55
2022-10-05T16:37:43.088Z,5.70
2022-10-05T16:41:02.415Z,3.90
2022-10-05T16:43:57.902Z,2.60
2022-10-05T16:46:52.910Z,2.90
2022-10-05T16:49:59.647Z,4.18
2022-10-05T16:52:28.049Z,3.70
2022-10-05T16:55:02.903Z,3.55
2022-10-05T16:57:36.435Z,3.78
2022-10-05T17:00:19.161Z,4.70
2022-10-05T17:03:03.961Z,6.00
2022-10-05T17:06:07.613Z,3.55
2022-10-05T17:09:02.746Z,4.32
2022-10-05T17:11:41.229Z,4.18
2022-10-05T17:14:34.045Z,4.75
2022-10-05T17:17:48.970Z,3.55
2022-10-05T17:20:29.357Z,3.30
2022-10-05T17:23:15.795Z,8.50
2022-10-05T17:25:54.123Z,4.03
2022-10-05T17:28:59.313Z,6.93
2022-10-05T17:31:26.525Z,4.63
2022-10-05T17:33:59.196Z,7.80
2022-10-05T17:36:47.673Z,5.82
2022-10-05T17:39:20.472Z,5.65
2022-10-05T17:41:48.369Z,4.78
2022-10-05T17:44:21.265Z,5.35
2022-10-05T17:46:58.009Z,4.18
2022-10-05T17:50:12.452Z,5.00
2022-10-05T17:53:02.021Z,5.28
2022-10-05T17:55:31.960Z,4.43
2022-10-05T17:58:23.761Z,6.75
2022-10-05T18:00:56.837Z,3.85
2022-10-05T18:03:40.652Z,3.42
2022-10-05T18:06:25.733Z,3.63
2022-10-05T18:09:37.549Z,4.78
2022-10-05T18:12:25.490Z,4.70
2022-10-05T18:15:07.364Z,4.57
2022-10-05T18:17:52.942Z,4.32
2022-10-05T18:20:34.893Z,3.75
2022-10-05T18:23:07.550Z,3.67
2022-10-05T18:26:04.664Z,4.32
2022-10-05T18:29:14.066Z,5.93
2022-10-05T18:32:02.761Z,4.85
2022-10-05T18:34:44.534Z,4.45
2022-10-05T18:37:31.528Z,6.07
2022-10-05T18:40:23.613Z,4.15
2022-10-05T18:42:53.745Z,3.40
2022-10-05T18:45:49.182Z,5.68
2022-10-05T18:48:26.716Z,2.63
2022-10-05T18:51:29.610Z,4.68
2022-10-05T18:54:25.862Z,3.40
2022-10-05T18:56:53.887Z,4.78
2022-10-05T18:59:43.978Z,6.15
2022-10-05T19:02:26.158Z,4.68
2022-10-05T19:05:46.476Z,5.40
2022-10-05T19:09:17.165Z,4.88
2022-10-05T19:12:14.775Z,5.47
2022-10-05T19:14:55.689Z,3.88
2022-10-05T19:18:04.516Z,4.28
2022-10-05T19:20:40.380Z,5.90
2022-10-05T19:23:40.896Z,4.60
2022-10-05T19:26:36.666Z,6.53
2022-10-05T19:29:30.403Z,3.72
2022-10-05T19:32:13.240Z,7.78
2022-10-05T19:35:07.675Z,4.97
2022-10-05T19:38:03.263Z,3.60
2022-10-05T19:40:45.634Z,5.57
2022-10-05T19:43:27.678Z,5.75
2022-10-05T19:46:33.434Z,5.25
2022-10-05T19:49:00.533Z,4.63
2022-10-05T19:51:32.719Z,5.78
2022-10-05T19:54:29.081Z,6.30
2022-10-05T19:57:02.498Z,8.23
2022-10-05T19:59:34.668Z,6.00
2022-10-05T20:02:02.433Z,6.75
2022-10-05T20:04:40.808Z,4.63
2022-10-05T20:07:15.671Z,5.47
2022-10-05T20:09:52.580Z,5.90
2022-10-05T20:12:23.055Z,7.32
2022-10-05T20:15:27.222Z,5.47
2022-10-05T20:18:12.554Z,5.88
2022-10-05T20:20:47.069Z,3.70
2022-10-05T20:23:28.089Z,4.85
2022-10-05T20:26:13.297Z,4.32
2022-10-05T20:28:40.327Z,5.78
2022-10-05T20:31:08.292Z,6.93
2022-10-05T20:33:35.064Z,4.75
2022-10-05T20:36:03.711Z,5.40
2022-10-05T20:38:31.596Z,3.70
2022-10-05T20:40:58.549Z,4.28
2022-10-05T20:43:25.249Z,5.57
2022-10-05T20:45:53.756Z,5.18
2022-10-05T20:48:20.538Z,4.78
2022-10-05T20:50:47.467Z,5.13
2022-10-05T20:53:14.394Z,4.22
2022-10-05T20:55:41.112Z,3.47
2022-10-05T20:58:09.051Z,9.32
2022-10-05T21:00:54.782Z,4.43
2022-10-05T21:03:21.562Z,4.75
2022-10-05T21:05:48.380Z,6.03
2022-10-05T21:08:15.205Z,5.47
2022-10-05T21:10:41.991Z,5.95
2022-10-05T21:13:09.133Z,5.13
2022-10-05T21:15:35.913Z,7.75
2022-10-05T21:18:02.642Z,6.85
2022-10-05T21:20:29.400Z,5.75
2022-10-05T21:22:56.159Z,5.78
2022-10-05T21:25:22.868Z,7.05
2022-10-05T21:27:50.308Z,8.27
2022-10-05T21:30:17.354Z,5.20
2022-10-05T21:32:44.799Z,5.85
2022-10-05T21:35:11.921Z,5.32
2022-10-05T21:37:38.641Z,6.25
2022-10-05T21:40:06.137Z,3.53
2022-10-05T21:42:33.085Z,4.72
2022-10-05T21:44:59.836Z,3.95
2022-10-05T21:47:26.721Z,7.78
2022-10-05T21:49:54.105Z,3.53
2022-10-05T21:52:21.856Z,4.75
2022-10-05T21:54:48.931Z,3.80
2022-10-05T21:57:15.988Z,7.15
2022-10-05T21:59:43.511Z,5.13
2022-10-05T22:02:10.231Z,2.78
2022-10-05T22:04:36.974Z,5.00
2022-10-05T22:07:18.537Z,4.20
2022-10-05T22:09:48.505Z,3.58
2022-10-05T22:12:16.139Z,3.38
2022-10-05T22:14:42.912Z,3.75
2022-10-05T22:17:25.320Z,5.32
2022-10-05T22:19:52.106Z,2.58
2022-10-05T22:22:18.922Z,2.35
2022-10-05T22:24:45.625Z,2.92
2022-10-05T22:27:13.278Z,2.63
2022-10-05T22:29:41.368Z,6.30
2022-10-05T22:32:08.684Z,3.85
2022-10-05T22:34:35.472Z,2.92
2022-10-05T22:37:04.273Z,3.10
2022-10-05T22:39:31.150Z,4.18
2022-10-05T22:41:58.527Z,6.13
2022-10-05T22:44:25.275Z,2.65
2022-10-05T22:46:52.001Z,1.75
2022-10-05T22:49:18.682Z,5.30
2022-10-05T22:51:45.421Z,4.93
2022-10-05T22:54:12.187Z,3.08
2022-10-05T22:56:38.991Z,4.13
2022-10-05T22:59:05.706Z,3.00
2022-10-05T23:01:32.464Z,1.75
2022-10-05T23:03:59.438Z,3.05
2022-10-05T23:06:29.137Z,5.38
2022-10-05T23:08:57.185Z,3.20
2022-10-05T23:11:28.108Z,6.70
2022-10-05T23:13:56.872Z,6.88
2022-10-05T23:16:27.694Z,3.65
2022-10-05T23:18:55.128Z,3.17
2022-10-05T23:21:24.331Z,5.50
2022-10-05T23:23:51.381Z,5.00
2022-10-05T23:26:22.948Z,4.72
2022-10-05T23:28:50.392Z,4.00
2022-10-05T23:31:24.206Z,3.85
2022-10-05T23:33:52.687Z,2.65
2022-10-05T23:36:27.534Z,2.65
2022-10-05T23:38:54.471Z,8.43
2022-10-05T23:41:21.320Z,5.45
2022-10-05T23:43:48.334Z,6.60
2022-10-05T23:46:16.009Z,6.07
2022-10-05T23:48:43.241Z,3.08
2022-10-05T23:51:12.900Z,9.50
2022-10-05T23:53:39.690Z,7.72
2022-10-05T23:56:07.009Z,4.78
2022-10-05T23:58:33.828Z,3.90
